^^
Saratoga-Weather Station Historical Data
Daily Summary for May 24, 2021 Units:  English    Metric   Both
Daily Weekly Monthly Yearly Custom
  High: Low: Average:
Temperature: 73.9 °F 55.9 °F 64.6 °F
Dew Point: 59.7 °F 52 °F 55.2 °F
Humidity: 94% 50% 74%
Wind Speed: 11mph 0mph 2.1mph
Wind Gust: 13mph - -
Wind- - SE
Pressure: 30.2 in 30.2 in -
Precipitation: 0 in    
Historical Graphs
 
 
Tabular Data for May 24, 2021
Time Temperature Dew Point Pressure Wind Wind Speed Wind Gust Humidity Rainfall Rate (Hourly) solar
00:04 64.6 °F 59 °F 30.2 in NNW 0.9 mph 1 mph 82% 0 in 0 W/m2
00:09 64.6 °F 59 °F 30.2 in Calm   3 mph 82% 0 in 0 W/m2
00:14 64.4 °F 59.2 °F 30.2 in ESE 2 mph 2 mph 83% 0 in 0 W/m2
00:19 64.2 °F 59 °F 30.2 in Calm   1 mph 83% 0 in 0 W/m2
00:24 64.2 °F 59 °F 30.2 in East 2 mph 5 mph 83% 0 in 0 W/m2
00:29 64.2 °F 59 °F 30.2 in East 0.9 mph 4 mph 83% 0 in 0 W/m2
00:34 64.2 °F 59.4 °F 30.2 in NNE 0.9 mph 4 mph 84% 0 in 0 W/m2
00:39 64 °F 59.2 °F 30.2 in Calm   1 mph 84% 0 in 0 W/m2
00:44 64 °F 59.2 °F 30.2 in NE 2 mph 5 mph 84% 0 in 0 W/m2
00:49 64 °F 59.2 °F 30.2 in East 0.9 mph 2 mph 84% 0 in 0 W/m2
00:54 64 °F 59.4 °F 30.2 in Calm   1 mph 85% 0 in 0 W/m2
00:59 64 °F 59.4 °F 30.2 in NE 2.9 mph 3 mph 85% 0 in 0 W/m2
01:04 63.9 °F 59.2 °F 30.2 in NW 0.9 mph 2 mph 85% 0 in 0 W/m2
01:10 63.9 °F 59.2 °F 30.2 in ESE 0.9 mph 3 mph 85% 0 in 0 W/m2
01:15 63.9 °F 59.2 °F 30.2 in NNE 0.9 mph 2 mph 85% 0 in 0 W/m2
01:20 63.9 °F 59.5 °F 30.2 in SE 2.9 mph 3 mph 86% 0 in 0 W/m2
01:25 63.9 °F 59.5 °F 30.2 in NE 0.9 mph 3 mph 86% 0 in 0 W/m2
01:30 63.7 °F 59.4 °F 30.2 in ESE 0.9 mph 6 mph 86% 0 in 0 W/m2
01:35 63.7 °F 59.4 °F 30.2 in SE 2 mph 3 mph 86% 0 in 0 W/m2
01:40 63.7 °F 59.7 °F 30.2 in NW 2.9 mph 6 mph 87% 0 in 0 W/m2
01:45 63.7 °F 59.7 °F 30.2 in NW 4.9 mph 5 mph 87% 0 in 0 W/m2
01:50 63.3 °F 59.4 °F 30.2 in NW 2 mph 3 mph 87% 0 in 0 W/m2
01:55 63.3 °F 59.4 °F 30.2 in ENE 5 mph 5 mph 87% 0 in 0 W/m2
02:00 63.1 °F 59.2 °F 30.2 in NNE 4 mph 4 mph 87% 0 in 0 W/m2
02:05 63.1 °F 59.2 °F 30.2 in NE 2.9 mph 5 mph 87% 0 in 0 W/m2
02:10 63 °F 59 °F 30.2 in East 2 mph 2 mph 87% 0 in 0 W/m2
02:15 62.8 °F 58.8 °F 30.2 in North 0.9 mph 3 mph 87% 0 in 0 W/m2
02:20 62.4 °F 58.8 °F 30.2 in Calm     88% 0 in 0 W/m2
02:25 62.2 °F 58.6 °F 30.2 in West 0.9 mph 2 mph 88% 0 in 0 W/m2
02:30 62.1 °F 58.8 °F 30.2 in Calm   2 mph 89% 0 in 0 W/m2
02:35 61.9 °F 58.6 °F 30.2 in NW 0.9 mph 1 mph 89% 0 in 0 W/m2
02:40 61.7 °F 58.5 °F 30.2 in NW 0.9 mph 2 mph 89% 0 in 0 W/m2
02:45 61.5 °F 58.6 °F 30.2 in Calm   1 mph 90% 0 in 0 W/m2
02:50 61.3 °F 58.5 °F 30.2 in SW 0.9 mph 2 mph 90% 0 in 0 W/m2
02:55 61.3 °F 58.5 °F 30.2 in NNW 0.9 mph 4 mph 90% 0 in 0 W/m2
03:00 61.2 °F 58.3 °F 30.2 in SW 2 mph 2 mph 90% 0 in 0 W/m2
03:05 61 °F 58.1 °F 30.2 in NE 0.9 mph 4 mph 90% 0 in 0 W/m2
03:10 60.8 °F 57.9 °F 30.2 in Calm   2 mph 90% 0 in 0 W/m2
03:15 60.6 °F 57.7 °F 30.2 in ENE 0.9 mph 3 mph 90% 0 in 0 W/m2
03:20 60.4 °F 57.7 °F 30.2 in Calm   1 mph 91% 0 in 0 W/m2
03:25 60.4 °F 57.7 °F 30.2 in Calm   2 mph 91% 0 in 0 W/m2
03:30 60.3 °F 57.6 °F 30.2 in Calm   1 mph 91% 0 in 0 W/m2
03:35 60.1 °F 57.4 °F 30.2 in Calm   1 mph 91% 0 in 0 W/m2
03:40 59.7 °F 57 °F 30.2 in NW 0.9 mph 2 mph 91% 0 in 0 W/m2
03:45 59.5 °F 57.2 °F 30.2 in Calm   2 mph 92% 0 in 0 W/m2
03:50 59.5 °F 57.2 °F 30.2 in WNW 2 mph 3 mph 92% 0 in 0 W/m2
03:55 59.4 °F 57 °F 30.2 in WNW 0.9 mph 2 mph 92% 0 in 0 W/m2
04:01 59.4 °F 57 °F 30.2 in WNW 2 mph 3 mph 92% 0 in 0 W/m2
04:06 59.2 °F 56.8 °F 30.2 in WNW 2 mph 4 mph 92% 0 in 0 W/m2
04:11 59.2 °F 56.8 °F 30.2 in North 0.9 mph 1 mph 92% 0 in 0 W/m2
04:16 59 °F 56.7 °F 30.2 in Calm   4 mph 92% 0 in 0 W/m2
04:21 58.8 °F 56.5 °F 30.2 in NNE 0.9 mph 1 mph 92% 0 in 0 W/m2
04:26 58.8 °F 56.5 °F 30.2 in Calm   4 mph 92% 0 in 0 W/m2
04:31 58.6 °F 56.3 °F 30.2 in Calm   3 mph 92% 0 in 0 W/m2
04:36 58.5 °F 56.1 °F 30.2 in WSW 0.9 mph 2 mph 92% 0 in 0 W/m2
04:41 58.3 °F 56.3 °F 30.2 in WSW 0.9 mph 3 mph 93% 0 in 0 W/m2
04:46 58.3 °F 56.3 °F 30.2 in Calm   1 mph 93% 0 in 0 W/m2
04:51 57.9 °F 55.9 °F 30.2 in WSW 0.9 mph 2 mph 93% 0 in 0 W/m2
04:56 57.9 °F 55.9 °F 30.2 in Calm   4 mph 93% 0 in 0 W/m2
05:01 57.9 °F 55.9 °F 30.2 in Calm   1 mph 93% 0 in 0 W/m2
05:06 57.7 °F 55.8 °F 30.2 in NW 2 mph 4 mph 93% 0 in 0 W/m2
05:11 57.7 °F 55.8 °F 30.2 in West 0.9 mph 1 mph 93% 0 in 0 W/m2
05:16 57.7 °F 55.8 °F 30.2 in Calm   3 mph 93% 0 in 0 W/m2
05:21 57.7 °F 55.8 °F 30.2 in WNW 0.9 mph 2 mph 93% 0 in 0 W/m2
05:26 57.7 °F 55.8 °F 30.2 in Calm     93% 0 in 0 W/m2
05:31 57.6 °F 55.6 °F 30.2 in WSW 0.9 mph 2 mph 93% 0 in 0 W/m2
05:36 57.6 °F 55.8 °F 30.2 in WNW 2 mph 3 mph 94% 0 in 0 W/m2
05:41 57.6 °F 55.8 °F 30.2 in Calm   2 mph 94% 0 in 0 W/m2
05:46 57.6 °F 55.8 °F 30.2 in West 2.9 mph 3 mph 94% 0 in 0 W/m2
05:51 57.4 °F 55.6 °F 30.2 in NW 2.9 mph 3 mph 94% 0 in 0 W/m2
05:56 57.4 °F 55.6 °F 30.2 in Calm   1 mph 94% 0 in 0 W/m2
06:01 57.2 °F 55.4 °F 30.2 in Calm   1 mph 94% 0 in 0 W/m2
06:06 57 °F 55 °F 30.2 in Calm   3 mph 93% 0 in 0 W/m2
06:11 57 °F 55.2 °F 30.2 in WNW 2 mph 2 mph 94% 0 in 0 W/m2
06:16 56.8 °F 55.2 °F 30.2 in Calm   1 mph 94% 0 in 0 W/m2
06:21 56.8 °F 55.2 °F 30.2 in West 0.9 mph 2 mph 94% 0 in 0 W/m2
06:26 56.7 °F 55 °F 30.2 in Calm   3 mph 94% 0 in 0 W/m2
06:31 56.7 °F 55 °F 30.2 in Calm   1 mph 94% 0 in 0 W/m2
06:36 56.7 °F 55 °F 30.2 in WSW 2 mph 3 mph 94% 0 in 0 W/m2
06:41 56.5 °F 54.9 °F 30.2 in WSW 0.9 mph 2 mph 94% 0 in 0 W/m2
06:46 56.3 °F 54.7 °F 30.2 in WSW 2.9 mph 3 mph 94% 0 in 7 W/m2
06:51 56.1 °F 54.5 °F 30.2 in Calm     94% 0 in 9 W/m2
06:56 56.1 °F 54.5 °F 30.2 in Calm   2 mph 94% 0 in 12 W/m2
07:01 56.1 °F 54.5 °F 30.2 in Calm     94% 0 in 14 W/m2
07:06 55.9 °F 54.3 °F 30.2 in Calm   2 mph 94% 0 in 18 W/m2
07:11 55.9 °F 54.3 °F 30.2 in Calm     94% 0 in 21 W/m2
07:16 55.9 °F 54.3 °F 30.2 in WNW 0.9 mph 2 mph 94% 0 in 23 W/m2
07:21 55.9 °F 54.3 °F 30.2 in Calm   1 mph 94% 0 in 26 W/m2
07:26 55.9 °F 54.3 °F 30.2 in Calm   1 mph 94% 0 in 28 W/m2
07:31 55.9 °F 54.3 °F 30.2 in ESE 0.9 mph 2 mph 94% 0 in 32 W/m2
07:36 56.1 °F 54.5 °F 30.2 in Calm   2 mph 94% 0 in 33 W/m2
07:41 56.1 °F 54.5 °F 30.2 in Calm     94% 0 in 35 W/m2
07:46 56.1 °F 54.5 °F 30.2 in ESE 0.9 mph 2 mph 94% 0 in 39 W/m2
07:51 56.1 °F 54.5 °F 30.2 in Calm   2 mph 94% 0 in 40 W/m2
07:56 56.5 °F 54.9 °F 30.2 in NNW 0.9 mph 2 mph 94% 0 in 42 W/m2
08:02 56.5 °F 54.9 °F 30.2 in NNW 0.9 mph 2 mph 94% 0 in 44 W/m2
08:07 56.7 °F 55 °F 30.2 in NNW 0.9 mph 4 mph 94% 0 in 46 W/m2
08:12 56.8 °F 55.2 °F 30.2 in Calm   2 mph 94% 0 in 47 W/m2
08:17 57.2 °F 55.2 °F 30.2 in Calm   2 mph 93% 0 in 49 W/m2
08:22 57.4 °F 55.4 °F 30.2 in NNW 0.9 mph 3 mph 93% 0 in 49 W/m2
08:27 57.7 °F 55.8 °F 30.2 in ESE 2.9 mph 3 mph 93% 0 in 90 W/m2
08:32 58.3 °F 55.9 °F 30.2 in SSE 2 mph 3 mph 92% 0 in 156 W/m2
08:37 58.6 °F 55.9 °F 30.2 in ENE 2.9 mph 4 mph 91% 0 in 202 W/m2
08:42 59 °F 55.8 °F 30.2 in ENE 2 mph 5 mph 89% 0 in 216 W/m2
08:47 59.4 °F 56.1 °F 30.2 in East 0.9 mph 3 mph 89% 0 in 234 W/m2
08:52 59.5 °F 55.6 °F 30.2 in ENE 2.9 mph 6 mph 87% 0 in 246 W/m2
08:57 59.7 °F 55.6 °F 30.2 in NE 2 mph 4 mph 86% 0 in 258 W/m2
09:02 60.1 °F 55.6 °F 30.2 in ESE 0.9 mph 5 mph 85% 0 in 276 W/m2
09:07 60.3 °F 56.1 °F 30.2 in SE 2.9 mph 5 mph 86% 0 in 290 W/m2
09:12 60.4 °F 55.6 °F 30.2 in East 2 mph 8 mph 84% 0 in 304 W/m2
09:17 60.6 °F 55.8 °F 30.2 in ENE 2 mph 6 mph 84% 0 in 318 W/m2
09:22 60.8 °F 55.6 °F 30.2 in WNW 0.9 mph 2 mph 83% 0 in 79 W/m2
09:27 61.2 °F 55.6 °F 30.2 in ENE 2 mph 6 mph 82% 0 in 69 W/m2
09:32 61.3 °F 55.8 °F 30.2 in East 0.9 mph 6 mph 82% 0 in 359 W/m2
09:37 61.7 °F 55.4 °F 30.2 in North 2.9 mph 5 mph 80% 0 in 374 W/m2
09:42 62.1 °F 55.8 °F 30.2 in SSE 8.1 mph 8 mph 80% 0 in 390 W/m2
09:47 62.6 °F 55.6 °F 30.2 in East 0.9 mph 2 mph 78% 0 in 408 W/m2
09:52 63.1 °F 55 °F 30.2 in NE 4 mph 8 mph 75% 0 in 420 W/m2
09:57 63.5 °F 55 °F 30.2 in NE 4 mph 5 mph 74% 0 in 432 W/m2
10:02 63.9 °F 55 °F 30.2 in East 2 mph 5 mph 73% 0 in 448 W/m2
10:07 64.2 °F 55.4 °F 30.2 in SE 2.9 mph 6 mph 73% 0 in 459 W/m2
10:12 64.6 °F 55.8 °F 30.2 in NE 0.9 mph 6 mph 73% 0 in 471 W/m2
10:17 64.8 °F 54.7 °F 30.2 in ESE 0.9 mph 6 mph 70% 0 in 485 W/m2
10:22 64.8 °F 54.3 °F 30.2 in SE 4 mph 11 mph 69% 0 in 496 W/m2
10:27 64.8 °F 54.3 °F 30.2 in East 2 mph 10 mph 69% 0 in 504 W/m2
10:32 64.8 °F 54 °F 30.2 in SE 2 mph 9 mph 68% 0 in 517 W/m2
10:37 65.1 °F 54.3 °F 30.2 in SSE 0.9 mph 5 mph 68% 0 in 533 W/m2
10:42 65.5 °F 55 °F 30.2 in NE 2.9 mph 8 mph 69% 0 in 541 W/m2
10:47 65.8 °F 55 °F 30.2 in NNE 4 mph 4 mph 68% 0 in 552 W/m2
10:52 66 °F 55.2 °F 30.2 in ENE 2.9 mph 6 mph 68% 0 in 568 W/m2
10:57 66.2 °F 54.1 °F 30.2 in NE 0.9 mph 7 mph 65% 0 in 584 W/m2
11:02 66.4 °F 53.4 °F 30.2 in North 0.9 mph 9 mph 63% 0 in 592 W/m2
11:07 66.4 °F 53.4 °F 30.2 in East 8.1 mph 11 mph 63% 0 in 608 W/m2
11:12 66.4 °F 52.9 °F 30.2 in NE 2 mph 9 mph 62% 0 in 628 W/m2
11:17 66.6 °F 52.7 °F 30.2 in West 0.9 mph 11 mph 61% 0 in 642 W/m2
11:22 66.4 °F 52.2 °F 30.2 in ESE 8.1 mph 13 mph 60% 0 in 638 W/m2
11:27 66.2 °F 52.9 °F 30.2 in SE 0.9 mph 8 mph 62% 0 in 656 W/m2
11:32 66.4 °F 52.5 °F 30.2 in ESE 10.1 mph 10 mph 61% 0 in 666 W/m2
11:37 66.6 °F 52.7 °F 30.2 in NNE 11 mph 11 mph 61% 0 in 680 W/m2
11:42 66.7 °F 52.3 °F 30.2 in NE 4 mph 6 mph 60% 0 in 694 W/m2
11:47 66.9 °F 52.5 °F 30.2 in NE 2.9 mph 8 mph 60% 0 in 689 W/m2
11:52 67.1 °F 53.2 °F 30.2 in East 4 mph 5 mph 61% 0 in 696 W/m2
11:57 67.5 °F 53.1 °F 30.2 in NNW 0.9 mph 9 mph 60% 0 in 710 W/m2
12:02 67.5 °F 52.2 °F 30.2 in NNW 8.1 mph 11 mph 58% 0 in 722 W/m2
12:07 67.5 °F 53.1 °F 30.2 in East 2.9 mph 8 mph 60% 0 in 742 W/m2
12:12 67.6 °F 52.3 °F 30.2 in ESE 2.9 mph 9 mph 58% 0 in 756 W/m2
12:17 67.8 °F 52.5 °F 30.2 in SE 2.9 mph 8 mph 58% 0 in 791 W/m2
12:22 67.8 °F 52.5 °F 30.2 in NE 4 mph 11 mph 58% 0 in 798 W/m2
12:27 68 °F 52.2 °F 30.2 in East 2 mph 13 mph 57% 0 in 758 W/m2
12:32 68.4 °F 53.1 °F 30.2 in ESE 2.9 mph 5 mph 58% 0 in 761 W/m2
12:37 68.7 °F 52.9 °F 30.2 in NE 2 mph 13 mph 57% 0 in 788 W/m2
12:42 69.1 °F 52.7 °F 30.2 in NW 2.9 mph 9 mph 56% 0 in 816 W/m2
12:47 68.9 °F 52.5 °F 30.2 in East 4 mph 13 mph 56% 0 in 751 W/m2
12:52 68.7 °F 52 °F 30.2 in ENE 4 mph 12 mph 55% 0 in 752 W/m2
12:57 68.7 °F 52 °F 30.2 in NE 4 mph 10 mph 55% 0 in 749 W/m2
13:02 68.7 °F 52.3 °F 30.2 in SE 2 mph 12 mph 56% 0 in 763 W/m2
13:07 68.9 °F 52.5 °F 30.2 in NNE 10.1 mph 10 mph 56% 0 in 761 W/m2
13:12 68.9 °F 52.5 °F 30.2 in WNW 2 mph 9 mph 56% 0 in 766 W/m2
13:17 69.3 °F 52.9 °F 30.2 in NE 2.9 mph 9 mph 56% 0 in 768 W/m2
13:22 69.4 °F 52.5 °F 30.2 in ENE 8.1 mph 8 mph 55% 0 in 772 W/m2
13:27 69.4 °F 53.1 °F 30.2 in Calm   5 mph 56% 0 in 777 W/m2
13:32 69.6 °F 52.2 °F 30.2 in East 6.9 mph 7 mph 54% 0 in 773 W/m2
13:37 69.6 °F 52.2 °F 30.2 in South 4 mph 8 mph 54% 0 in 772 W/m2
13:42 69.6 °F 52.2 °F 30.2 in NE 6.9 mph 10 mph 54% 0 in 779 W/m2
13:47 69.8 °F 52.3 °F 30.2 in SE 2.9 mph 6 mph 54% 0 in 777 W/m2
13:52 70 °F 52.5 °F 30.2 in ENE 6 mph 7 mph 54% 0 in 773 W/m2
13:57 70.2 °F 52.2 °F 30.2 in SW 4 mph 11 mph 53% 0 in 777 W/m2
14:02 70.3 °F 52.3 °F 30.2 in NNW 2 mph 7 mph 53% 0 in 768 W/m2
14:07 70.5 °F 52.5 °F 30.2 in East 2.9 mph 11 mph 53% 0 in 782 W/m2
14:12 70.9 °F 52.9 °F 30.2 in North 0.9 mph 7 mph 53% 0 in 780 W/m2
14:17 71.1 °F 52.5 °F 30.2 in ENE 4.9 mph 6 mph 52% 0 in 772 W/m2
14:22 71.1 °F 52.5 °F 30.2 in East 6 mph 8 mph 52% 0 in 777 W/m2
14:27 70.9 °F 52.3 °F 30.2 in NNW 2.9 mph 9 mph 52% 0 in 775 W/m2
14:32 70.9 °F 52.9 °F 30.2 in North 2 mph 9 mph 53% 0 in 772 W/m2
14:38 71.2 °F 53.8 °F 30.2 in NNW 0.9 mph 9 mph 54% 0 in 766 W/m2
14:43 71.1 °F 52.5 °F 30.2 in NW 0.9 mph 10 mph 52% 0 in 758 W/m2
14:48 71.1 °F 53.6 °F 30.2 in ENE 4 mph 11 mph 54% 0 in 756 W/m2
14:53 71.2 °F 53.8 °F 30.2 in SE 2.9 mph 9 mph 54% 0 in 752 W/m2
14:58 71.2 °F 53.2 °F 30.2 in WNW 4 mph 7 mph 53% 0 in 749 W/m2
15:03 71.4 °F 54.5 °F 30.2 in Calm   4 mph 55% 0 in 744 W/m2
15:08 72 °F 53.4 °F 30.2 in SE 4 mph 7 mph 52% 0 in 740 W/m2
15:13 71.8 °F 53.8 °F 30.2 in ENE 8.1 mph 12 mph 53% 0 in 731 W/m2
15:18 71.8 °F 53.8 °F 30.2 in ENE 2.9 mph 6 mph 53% 0 in 726 W/m2
15:23 71.8 °F 53.2 °F 30.2 in ENE 4.9 mph 12 mph 52% 0 in 717 W/m2
15:28 72 °F 54 °F 30.2 in ESE 4 mph 8 mph 53% 0 in 712 W/m2
15:33 72 °F 53.4 °F 30.2 in NE 2.9 mph 8 mph 52% 0 in 703 W/m2
15:38 72.1 °F 53.6 °F 30.2 in NNW 4 mph 8 mph 52% 0 in 701 W/m2
15:43 72.3 °F 53.8 °F 30.2 in Calm   7 mph 52% 0 in 694 W/m2
15:48 72.9 °F 54.1 °F 30.2 in ESE 2 mph 5 mph 52% 0 in 684 W/m2
15:53 72.7 °F 52.9 °F 30.2 in ESE 2.9 mph 10 mph 50% 0 in 677 W/m2
15:58 72.7 °F 55 °F 30.2 in SE 0.9 mph 5 mph 54% 0 in 668 W/m2
16:03 72.9 °F 53.6 °F 30.2 in ENE 2 mph 11 mph 51% 0 in 661 W/m2
16:08 72.9 °F 54.1 °F 30.2 in East 2.9 mph 9 mph 52% 0 in 652 W/m2
16:13 72.7 °F 54 °F 30.2 in East 6 mph 11 mph 52% 0 in 647 W/m2
16:18 72.9 °F 53.6 °F 30.2 in ESE 4 mph 7 mph 51% 0 in 635 W/m2
16:23 72.9 °F 54.1 °F 30.2 in ENE 4 mph 9 mph 52% 0 in 626 W/m2
16:28 73 °F 54.3 °F 30.2 in NE 4.9 mph 11 mph 52% 0 in 617 W/m2
16:33 72.9 °F 54.7 °F 30.2 in NNE 2 mph 8 mph 53% 0 in 608 W/m2
16:38 73 °F 54.3 °F 30.2 in East 2 mph 5 mph 52% 0 in 596 W/m2
16:43 73 °F 54.3 °F 30.2 in WNW 2.9 mph 8 mph 52% 0 in 587 W/m2
16:48 73 °F 54.9 °F 30.2 in Calm   5 mph 53% 0 in 580 W/m2
16:53 73.6 °F 54.9 °F 30.2 in East 2 mph 5 mph 52% 0 in 564 W/m2
16:58 73.8 °F 54.5 °F 30.2 in North 8.1 mph 9 mph 51% 0 in 599 W/m2
17:03 73.8 °F 55 °F 30.2 in NNW 2 mph 5 mph 52% 0 in 575 W/m2
17:08 73.4 °F 54.7 °F 30.2 in ENE 6 mph 12 mph 52% 0 in 540 W/m2
17:13 73.2 °F 55.6 °F 30.2 in ESE 2.9 mph 4 mph 54% 0 in 529 W/m2
17:18 73.4 °F 54.1 °F 30.2 in East 2.9 mph 12 mph 51% 0 in 436 W/m2
17:23 73.6 °F 54.9 °F 30.2 in NE 6.9 mph 7 mph 52% 0 in 501 W/m2
17:28 73.6 °F 54.9 °F 30.2 in SE 4.9 mph 12 mph 52% 0 in 513 W/m2
17:33 73.4 °F 54.7 °F 30.2 in ESE 2 mph 10 mph 52% 0 in 571 W/m2
17:38 73.9 °F 56.3 °F 30.2 in ENE 2.9 mph 7 mph 54% 0 in 564 W/m2
17:43 73.8 °F 55.6 °F 30.2 in East 2 mph 12 mph 53% 0 in 144 W/m2
17:48 73 °F 55.9 °F 30.2 in East 2.9 mph 6 mph 55% 0 in 434 W/m2
17:53 72.9 °F 56.7 °F 30.2 in ESE 4 mph 9 mph 57% 0 in 443 W/m2
17:58 73 °F 56.8 °F 30.2 in ESE 0.9 mph 5 mph 57% 0 in 420 W/m2
18:03 72.9 °F 56.3 °F 30.2 in NE 2 mph 10 mph 56% 0 in 397 W/m2
18:08 72.5 °F 55.9 °F 30.2 in ENE 4.9 mph 12 mph 56% 0 in 332 W/m2
18:13 72.1 °F 56.5 °F 30.2 in ENE 0.9 mph 7 mph 58% 0 in 322 W/m2
18:18 72.1 °F 56.1 °F 30.2 in ESE 2 mph 13 mph 57% 0 in 385 W/m2
18:23 72.1 °F 56.1 °F 30.2 in SE 8.1 mph 8 mph 57% 0 in 353 W/m2
18:28 72 °F 55.9 °F 30.2 in ENE 2 mph 4 mph 57% 0 in 288 W/m2
18:33 72.1 °F 56.1 °F 30.2 in NE 2 mph 6 mph 57% 0 in 327 W/m2
18:38 72 °F 55.9 °F 30.2 in ENE 2.9 mph 12 mph 57% 0 in 229 W/m2
18:43 71.8 °F 55.8 °F 30.2 in ENE 4 mph 8 mph 57% 0 in 258 W/m2
18:48 71.2 °F 56.1 °F 30.2 in NNE 2.9 mph 10 mph 59% 0 in 227 W/m2
18:53 71.1 °F 56.5 °F 30.2 in ENE 0.9 mph 9 mph 60% 0 in 230 W/m2
18:58 71.1 °F 56.8 °F 30.2 in East 2.9 mph 6 mph 61% 0 in 193 W/m2
19:03 70.9 °F 57.2 °F 30.2 in ESE 4 mph 7 mph 62% 0 in 188 W/m2
19:08 70.3 °F 56.7 °F 30.2 in ENE 4 mph 7 mph 62% 0 in 197 W/m2
19:13 70 °F 55.4 °F 30.2 in East 6.9 mph 13 mph 60% 0 in 142 W/m2
19:18 69.4 °F 55.4 °F 30.2 in East 0.9 mph 10 mph 61% 0 in 155 W/m2
19:23 69.3 °F 55.8 °F 30.2 in ESE 2.9 mph 13 mph 62% 0 in 86 W/m2
19:28 68.9 °F 54.9 °F 30.2 in NNE 0.9 mph 6 mph 61% 0 in 120 W/m2
19:33 68.7 °F 55.2 °F 30.2 in NE 4 mph 6 mph 62% 0 in 113 W/m2
19:38 68.7 °F 54.7 °F 30.2 in NE 2.9 mph 9 mph 61% 0 in 111 W/m2
19:43 68.7 °F 54.7 °F 30.2 in ESE 2.9 mph 5 mph 61% 0 in 76 W/m2
19:48 68.5 °F 54.5 °F 30.2 in East 2.9 mph 6 mph 61% 0 in 35 W/m2
19:53 68.2 °F 54.7 °F 30.2 in ESE 0.9 mph 4 mph 62% 0 in 18 W/m2
19:58 67.8 °F 54.7 °F 30.2 in Calm   2 mph 63% 0 in 18 W/m2
20:03 67.5 °F 54.5 °F 30.2 in ENE 0.9 mph 5 mph 63% 0 in 16 W/m2
20:08 67.3 °F 54.7 °F 30.2 in East 0.9 mph 6 mph 64% 0 in 14 W/m2
20:13 66.9 °F 54.3 °F 30.2 in East 2 mph 9 mph 64% 0 in 12 W/m2
20:18 66.7 °F 55 °F 30.2 in NNE 2.9 mph 7 mph 66% 0 in 12 W/m2
20:23 66.6 °F 54.9 °F 30.2 in SE 2 mph 6 mph 66% 0 in 9 W/m2
20:28 66.2 °F 54.5 °F 30.2 in Calm   7 mph 66% 0 in 5 W/m2
20:33 65.8 °F 54.5 °F 30.2 in Calm   3 mph 67% 0 in 0 W/m2
20:38 65.7 °F 54.9 °F 30.2 in East 0.9 mph 9 mph 68% 0 in 0 W/m2
20:43 65.5 °F 54.7 °F 30.2 in Calm   3 mph 68% 0 in 0 W/m2
20:48 65.3 °F 54.9 °F 30.2 in ENE 0.9 mph 9 mph 69% 0 in 0 W/m2
20:53 65.1 °F 54.7 °F 30.2 in ESE 2.9 mph 3 mph 69% 0 in 0 W/m2
20:58 64.9 °F 54.9 °F 30.2 in ENE 0.9 mph 6 mph 70% 0 in 0 W/m2
21:03 64.8 °F 54.7 °F 30.2 in NE 2 mph 4 mph 70% 0 in 0 W/m2
21:08 64.6 °F 55 °F 30.2 in ENE 0.9 mph 6 mph 71% 0 in 0 W/m2
21:13 64.6 °F 55 °F 30.2 in East 0.9 mph 2 mph 71% 0 in 0 W/m2
21:18 64.2 °F 55 °F 30.2 in ENE 2 mph 2 mph 72% 0 in 0 W/m2
21:23 64 °F 54.9 °F 30.2 in NE 2.9 mph 3 mph 72% 0 in 0 W/m2
21:28 63.9 °F 54.7 °F 30.2 in East 0.9 mph 3 mph 72% 0 in 0 W/m2
21:33 63.7 °F 54.9 °F 30.2 in SSE 2 mph 2 mph 73% 0 in 0 W/m2
21:38 63.7 °F 54.9 °F 30.2 in ESE 0.9 mph 3 mph 73% 0 in 0 W/m2
21:43 63.3 °F 54.9 °F 30.2 in SE 2.9 mph 3 mph 74% 0 in 0 W/m2
21:48 63.3 °F 54.9 °F 30.2 in Calm   3 mph 74% 0 in 0 W/m2
21:53 63.1 °F 54.7 °F 30.2 in ESE 0.9 mph 3 mph 74% 0 in 0 W/m2
21:58 63 °F 54.9 °F 30.2 in SE 0.9 mph 2 mph 75% 0 in 0 W/m2
22:03 62.8 °F 55 °F 30.2 in Calm   1 mph 76% 0 in 0 W/m2
22:09 62.4 °F 54.7 °F 30.2 in East 0.9 mph 3 mph 76% 0 in 0 W/m2
22:14 62.4 °F 55 °F 30.2 in East 2 mph 3 mph 77% 0 in 0 W/m2
22:19 62.2 °F 54.9 °F 30.2 in East 0.9 mph 2 mph 77% 0 in 0 W/m2
22:24 62.1 °F 54.7 °F 30.2 in ESE 0.9 mph 3 mph 77% 0 in 0 W/m2
22:29 61.9 °F 54.9 °F 30.2 in SE 0.9 mph 2 mph 78% 0 in 0 W/m2
22:34 61.5 °F 54.7 °F 30.2 in Calm   3 mph 78% 0 in 0 W/m2
22:39 61.3 °F 54.9 °F 30.2 in SE 0.9 mph 1 mph 79% 0 in 0 W/m2
22:44 61.2 °F 54.7 °F 30.2 in Calm     79% 0 in 0 W/m2
22:49 60.8 °F 54.7 °F 30.2 in Calm   1 mph 80% 0 in 0 W/m2
22:54 60.4 °F 54.5 °F 30.2 in Calm     81% 0 in 0 W/m2
22:59 60.3 °F 54.7 °F 30.2 in Calm     82% 0 in 0 W/m2
23:04 59.9 °F 54.3 °F 30.2 in Calm     82% 0 in 0 W/m2
23:09 59.7 °F 54.1 °F 30.2 in Calm     82% 0 in 0 W/m2
23:14 59.4 °F 54.1 °F 30.2 in SSW 0.9 mph 3 mph 83% 0 in 0 W/m2
23:19 59.2 °F 54.3 °F 30.2 in Calm   2 mph 84% 0 in 0 W/m2
23:24 58.8 °F 54 °F 30.2 in WSW 2 mph 2 mph 84% 0 in 0 W/m2
23:29 58.8 °F 54 °F 30.2 in WSW 2 mph 2 mph 84% 0 in 0 W/m2
23:34 58.8 °F 54 °F 30.2 in Calm   1 mph 84% 0 in 0 W/m2
23:39 58.6 °F 54.1 °F 30.2 in WSW 0.9 mph 1 mph 85% 0 in 0 W/m2
23:44 58.8 °F 54.3 °F 30.2 in WSW 2 mph 3 mph 85% 0 in 0 W/m2
23:49 58.8 °F 54.3 °F 30.2 in WSW 2.9 mph 3 mph 85% 0 in 0 W/m2
23:54 59 °F 54.1 °F 30.2 in Calm   2 mph 84% 0 in 0 W/m2
23:59 59 °F 54.1 °F 30.2 in WNW 0.9 mph 2 mph 84% 0 in 0 W/m2
Juneau County Weather
Compliments of Weather Underground - 4 mb